sensor_id;sensor_type;location;lat;lon;timestamp;P1;durP1;ratioP1;P2;durP2;ratioP2
41255;SDS011;26989;45.524;10.938;2022-12-07T00:01:34;62.38;;;13.27;;
41255;SDS011;26989;45.524;10.938;2022-12-07T00:04:05;29.67;;;13.53;;
41255;SDS011;26989;45.524;10.938;2022-12-07T00:06:35;25.10;;;11.88;;
41255;SDS011;26989;45.524;10.938;2022-12-07T00:11:36;18.00;;;12.18;;
41255;SDS011;26989;45.524;10.938;2022-12-07T00:14:05;18.77;;;11.88;;
41255;SDS011;26989;45.524;10.938;2022-12-07T00:16:34;20.30;;;12.57;;
41255;SDS011;26989;45.524;10.938;2022-12-07T00:19:02;18.48;;;12.57;;
41255;SDS011;26989;45.524;10.938;2022-12-07T00:21:30;16.92;;;12.02;;
41255;SDS011;26989;45.524;10.938;2022-12-07T00:24:00;15.88;;;10.38;;
41255;SDS011;26989;45.524;10.938;2022-12-07T00:26:28;13.63;;;9.23;;
41255;SDS011;26989;45.524;10.938;2022-12-07T00:28:58;13.48;;;7.45;;
41255;SDS011;26989;45.524;10.938;2022-12-07T00:31:28;12.88;;;7.22;;
41255;SDS011;26989;45.524;10.938;2022-12-07T00:33:59;10.70;;;6.45;;
41255;SDS011;26989;45.524;10.938;2022-12-07T00:36:26;9.95;;;6.05;;
41255;SDS011;26989;45.524;10.938;2022-12-07T00:38:54;8.05;;;4.25;;
41255;SDS011;26989;45.524;10.938;2022-12-07T00:41:24;8.73;;;4.68;;
41255;SDS011;26989;45.524;10.938;2022-12-07T00:43:52;9.10;;;4.70;;
41255;SDS011;26989;45.524;10.938;2022-12-07T00:46:20;4.63;;;2.90;;
41255;SDS011;26989;45.524;10.938;2022-12-07T00:48:48;6.28;;;3.22;;
41255;SDS011;26989;45.524;10.938;2022-12-07T00:51:16;5.50;;;3.22;;
41255;SDS011;26989;45.524;10.938;2022-12-07T00:53:45;5.78;;;3.10;;
41255;SDS011;26989;45.524;10.938;2022-12-07T00:56:12;6.53;;;3.60;;
41255;SDS011;26989;45.524;10.938;2022-12-07T00:58:41;6.10;;;2.75;;
41255;SDS011;26989;45.524;10.938;2022-12-07T01:01:09;9.15;;;4.45;;
41255;SDS011;26989;45.524;10.938;2022-12-07T01:03:37;27.23;;;10.15;;
41255;SDS011;26989;45.524;10.938;2022-12-07T01:06:05;28.80;;;10.82;;
41255;SDS011;26989;45.524;10.938;2022-12-07T01:08:32;39.05;;;15.27;;
41255;SDS011;26989;45.524;10.938;2022-12-07T01:11:00;12.68;;;6.70;;
41255;SDS011;26989;45.524;10.938;2022-12-07T01:13:30;10.57;;;7.15;;
41255;SDS011;26989;45.524;10.938;2022-12-07T01:15:58;23.90;;;8.77;;
41255;SDS011;26989;45.524;10.938;2022-12-07T01:18:27;29.17;;;9.70;;
41255;SDS011;26989;45.524;10.938;2022-12-07T01:21:02;31.95;;;11.05;;
41255;SDS011;26989;45.524;10.938;2022-12-07T01:23:29;28.83;;;10.45;;
41255;SDS011;26989;45.524;10.938;2022-12-07T01:26:02;26.73;;;11.05;;
41255;SDS011;26989;45.524;10.938;2022-12-07T01:28:31;52.15;;;10.98;;
41255;SDS011;26989;45.524;10.938;2022-12-07T01:31:00;40.30;;;10.85;;
41255;SDS011;26989;45.524;10.938;2022-12-07T01:33:33;287.42;;;15.90;;
41255;SDS011;26989;45.524;10.938;2022-12-07T01:36:03;248.23;;;16.27;;
41255;SDS011;26989;45.524;10.938;2022-12-07T01:38:30;115.25;;;12.07;;
41255;SDS011;26989;45.524;10.938;2022-12-07T01:40:58;227.88;;;12.65;;
41255;SDS011;26989;45.524;10.938;2022-12-07T01:43:28;133.48;;;11.68;;
41255;SDS011;26989;45.524;10.938;2022-12-07T01:45:56;72.03;;;10.43;;
41255;SDS011;26989;45.524;10.938;2022-12-07T01:48:38;92.10;;;10.90;;
41255;SDS011;26989;45.524;10.938;2022-12-07T01:51:10;66.45;;;11.38;;
41255;SDS011;26989;45.524;10.938;2022-12-07T01:53:41;88.28;;;11.95;;
41255;SDS011;26989;45.524;10.938;2022-12-07T01:56:13;49.78;;;10.00;;
41255;SDS011;26989;45.524;10.938;2022-12-07T01:58:44;36.50;;;10.15;;
41255;SDS011;26989;45.524;10.938;2022-12-07T02:01:12;14.95;;;8.25;;
41255;SDS011;26989;45.524;10.938;2022-12-07T02:03:40;18.55;;;9.32;;
41255;SDS011;26989;45.524;10.938;2022-12-07T02:06:09;14.70;;;8.27;;
41255;SDS011;26989;45.524;10.938;2022-12-07T02:08:39;13.90;;;8.63;;
41255;SDS011;26989;45.524;10.938;2022-12-07T02:11:07;10.70;;;7.43;;
41255;SDS011;26989;45.524;10.938;2022-12-07T02:13:36;11.23;;;7.05;;
41255;SDS011;26989;45.524;10.938;2022-12-07T02:27:51;13.13;;;7.35;;
41255;SDS011;26989;45.524;10.938;2022-12-07T02:30:28;9.68;;;5.60;;
41255;SDS011;26989;45.524;10.938;2022-12-07T02:36:25;15.25;;;9.00;;
41255;SDS011;26989;45.524;10.938;2022-12-07T02:41:39;12.80;;;9.25;;
41255;SDS011;26989;45.524;10.938;2022-12-07T02:44:11;11.18;;;9.07;;
41255;SDS011;26989;45.524;10.938;2022-12-07T02:46:42;12.88;;;8.85;;
41255;SDS011;26989;45.524;10.938;2022-12-07T02:49:13;10.35;;;7.82;;
41255;SDS011;26989;45.524;10.938;2022-12-07T02:51:43;12.63;;;8.38;;
41255;SDS011;26989;45.524;10.938;2022-12-07T02:54:13;11.10;;;8.15;;
41255;SDS011;26989;45.524;10.938;2022-12-07T02:56:46;10.45;;;8.10;;
41255;SDS011;26989;45.524;10.938;2022-12-07T03:02:10;13.45;;;7.43;;
41255;SDS011;26989;45.524;10.938;2022-12-07T03:07:39;8.15;;;5.65;;
41255;SDS011;26989;45.524;10.938;2022-12-07T03:13:06;9.13;;;4.93;;
41255;SDS011;26989;45.524;10.938;2022-12-07T03:18:28;5.30;;;3.13;;
41255;SDS011;26989;45.524;10.938;2022-12-07T03:20:59;6.05;;;2.80;;
41255;SDS011;26989;45.524;10.938;2022-12-07T03:23:31;8.10;;;3.05;;
41255;SDS011;26989;45.524;10.938;2022-12-07T03:26:01;3.67;;;1.88;;
41255;SDS011;26989;45.524;10.938;2022-12-07T03:28:31;4.45;;;2.25;;
41255;SDS011;26989;45.524;10.938;2022-12-07T03:31:02;5.22;;;1.92;;
41255;SDS011;26989;45.524;10.938;2022-12-07T03:33:32;3.38;;;1.60;;
41255;SDS011;26989;45.524;10.938;2022-12-07T03:36:26;3.80;;;2.15;;
41255;SDS011;26989;45.524;10.938;2022-12-07T03:39:03;4.00;;;2.10;;
41255;SDS011;26989;45.524;10.938;2022-12-07T03:41:47;3.80;;;2.35;;
41255;SDS011;26989;45.524;10.938;2022-12-07T03:44:15;5.63;;;3.92;;
41255;SDS011;26989;45.524;10.938;2022-12-07T03:50:02;11.25;;;6.65;;
41255;SDS011;26989;45.524;10.938;2022-12-07T03:53:15;19.67;;;7.20;;
41255;SDS011;26989;45.524;10.938;2022-12-07T03:55:48;15.23;;;7.07;;
41255;SDS011;26989;45.524;10.938;2022-12-07T03:58:17;17.90;;;7.10;;
41255;SDS011;26989;45.524;10.938;2022-12-07T04:00:47;68.75;;;8.27;;
41255;SDS011;26989;45.524;10.938;2022-12-07T04:03:15;25.80;;;6.88;;
41255;SDS011;26989;45.524;10.938;2022-12-07T04:05:43;20.63;;;7.07;;
41255;SDS011;26989;45.524;10.938;2022-12-07T04:08:11;31.92;;;7.22;;
41255;SDS011;26989;45.524;10.938;2022-12-07T04:10:38;38.67;;;7.55;;
41255;SDS011;26989;45.524;10.938;2022-12-07T04:13:05;9.98;;;6.88;;
41255;SDS011;26989;45.524;10.938;2022-12-07T04:15:32;9.35;;;6.95;;
41255;SDS011;26989;45.524;10.938;2022-12-07T04:17:59;8.90;;;7.25;;
41255;SDS011;26989;45.524;10.938;2022-12-07T04:20:26;10.23;;;6.60;;
41255;SDS011;26989;45.524;10.938;2022-12-07T04:22:53;8.25;;;6.60;;
41255;SDS011;26989;45.524;10.938;2022-12-07T04:25:20;10.13;;;6.93;;
41255;SDS011;26989;45.524;10.938;2022-12-07T04:27:47;10.05;;;6.68;;
41255;SDS011;26989;45.524;10.938;2022-12-07T04:30:14;10.02;;;6.50;;
41255;SDS011;26989;45.524;10.938;2022-12-07T04:32:41;9.65;;;6.95;;
41255;SDS011;26989;45.524;10.938;2022-12-07T04:35:08;11.25;;;7.07;;
41255;SDS011;26989;45.524;10.938;2022-12-07T04:37:35;11.43;;;7.32;;
41255;SDS011;26989;45.524;10.938;2022-12-07T04:40:02;11.18;;;8.10;;
41255;SDS011;26989;45.524;10.938;2022-12-07T04:42:30;12.88;;;8.30;;
41255;SDS011;26989;45.524;10.938;2022-12-07T04:44:57;9.98;;;7.43;;
41255;SDS011;26989;45.524;10.938;2022-12-07T04:47:24;10.05;;;6.53;;
41255;SDS011;26989;45.524;10.938;2022-12-07T04:49:50;4.60;;;3.30;;
41255;SDS011;26989;45.524;10.938;2022-12-07T04:52:17;5.50;;;3.35;;
41255;SDS011;26989;45.524;10.938;2022-12-07T04:54:44;4.78;;;2.80;;
41255;SDS011;26989;45.524;10.938;2022-12-07T04:57:11;6.50;;;3.58;;
41255;SDS011;26989;45.524;10.938;2022-12-07T04:59:38;7.57;;;3.97;;
41255;SDS011;26989;45.524;10.938;2022-12-07T05:02:10;7.18;;;3.83;;
41255;SDS011;26989;45.524;10.938;2022-12-07T05:04:37;6.70;;;3.72;;
41255;SDS011;26989;45.524;10.938;2022-12-07T05:07:04;9.82;;;4.75;;
41255;SDS011;26989;45.524;10.938;2022-12-07T05:09:31;7.75;;;4.78;;
41255;SDS011;26989;45.524;10.938;2022-12-07T05:11:58;7.72;;;5.13;;
41255;SDS011;26989;45.524;10.938;2022-12-07T05:14:25;8.07;;;5.30;;
41255;SDS011;26989;45.524;10.938;2022-12-07T05:16:52;9.38;;;6.07;;
41255;SDS011;26989;45.524;10.938;2022-12-07T05:19:20;8.45;;;4.65;;
41255;SDS011;26989;45.524;10.938;2022-12-07T05:21:47;8.30;;;5.53;;
41255;SDS011;26989;45.524;10.938;2022-12-07T05:24:14;9.23;;;5.40;;
41255;SDS011;26989;45.524;10.938;2022-12-07T05:26:42;9.07;;;5.30;;
41255;SDS011;26989;45.524;10.938;2022-12-07T05:29:11;11.27;;;6.00;;
41255;SDS011;26989;45.524;10.938;2022-12-07T05:31:39;10.73;;;6.35;;
41255;SDS011;26989;45.524;10.938;2022-12-07T05:34:07;10.80;;;6.40;;
41255;SDS011;26989;45.524;10.938;2022-12-07T05:36:34;11.73;;;7.13;;
41255;SDS011;26989;45.524;10.938;2022-12-07T05:39:01;13.18;;;6.47;;
41255;SDS011;26989;45.524;10.938;2022-12-07T05:41:28;10.63;;;6.13;;
41255;SDS011;26989;45.524;10.938;2022-12-07T05:44:13;11.05;;;6.82;;
41255;SDS011;26989;45.524;10.938;2022-12-07T05:46:40;10.73;;;6.97;;
41255;SDS011;26989;45.524;10.938;2022-12-07T05:49:07;9.65;;;6.40;;
41255;SDS011;26989;45.524;10.938;2022-12-07T05:51:34;8.68;;;6.65;;
41255;SDS011;26989;45.524;10.938;2022-12-07T05:54:01;10.07;;;6.90;;
41255;SDS011;26989;45.524;10.938;2022-12-07T05:56:28;9.13;;;5.90;;
41255;SDS011;26989;45.524;10.938;2022-12-07T05:58:54;12.13;;;8.00;;
41255;SDS011;26989;45.524;10.938;2022-12-07T06:01:40;10.05;;;7.35;;
41255;SDS011;26989;45.524;10.938;2022-12-07T06:04:07;11.05;;;6.82;;
41255;SDS011;26989;45.524;10.938;2022-12-07T06:06:35;10.57;;;7.03;;
41255;SDS011;26989;45.524;10.938;2022-12-07T06:09:02;9.82;;;6.93;;
41255;SDS011;26989;45.524;10.938;2022-12-07T06:11:29;14.23;;;8.25;;
41255;SDS011;26989;45.524;10.938;2022-12-07T06:14:15;14.52;;;8.30;;
41255;SDS011;26989;45.524;10.938;2022-12-07T06:16:42;11.25;;;7.15;;
41255;SDS011;26989;45.524;10.938;2022-12-07T06:19:09;17.23;;;8.43;;
41255;SDS011;26989;45.524;10.938;2022-12-07T06:21:36;12.98;;;7.10;;
41255;SDS011;26989;45.524;10.938;2022-12-07T06:24:03;14.57;;;8.00;;
41255;SDS011;26989;45.524;10.938;2022-12-07T06:26:30;11.25;;;6.82;;
41255;SDS011;26989;45.524;10.938;2022-12-07T06:28:57;13.52;;;8.13;;
41255;SDS011;26989;45.524;10.938;2022-12-07T06:31:24;11.15;;;5.68;;
41255;SDS011;26989;45.524;10.938;2022-12-07T06:33:56;7.35;;;3.60;;
41255;SDS011;26989;45.524;10.938;2022-12-07T06:36:27;8.60;;;4.72;;
41255;SDS011;26989;45.524;10.938;2022-12-07T06:38:55;13.50;;;5.70;;
41255;SDS011;26989;45.524;10.938;2022-12-07T06:41:22;8.57;;;3.58;;
41255;SDS011;26989;45.524;10.938;2022-12-07T06:43:49;10.48;;;4.82;;
41255;SDS011;26989;45.524;10.938;2022-12-07T06:46:21;12.90;;;7.25;;
41255;SDS011;26989;45.524;10.938;2022-12-07T06:48:48;10.75;;;6.43;;
41255;SDS011;26989;45.524;10.938;2022-12-07T06:51:16;12.15;;;5.63;;
41255;SDS011;26989;45.524;10.938;2022-12-07T06:53:43;10.30;;;4.95;;
41255;SDS011;26989;45.524;10.938;2022-12-07T06:56:10;7.43;;;4.97;;
41255;SDS011;26989;45.524;10.938;2022-12-07T06:58:38;7.15;;;4.35;;
41255;SDS011;26989;45.524;10.938;2022-12-07T07:01:08;8.35;;;4.70;;
41255;SDS011;26989;45.524;10.938;2022-12-07T07:03:43;11.27;;;4.68;;
41255;SDS011;26989;45.524;10.938;2022-12-07T07:06:11;8.40;;;4.55;;
41255;SDS011;26989;45.524;10.938;2022-12-07T07:08:39;8.93;;;4.28;;
41255;SDS011;26989;45.524;10.938;2022-12-07T07:11:07;11.13;;;5.05;;
41255;SDS011;26989;45.524;10.938;2022-12-07T07:13:35;9.35;;;5.20;;
41255;SDS011;26989;45.524;10.938;2022-12-07T07:16:02;8.32;;;4.97;;
41255;SDS011;26989;45.524;10.938;2022-12-07T07:18:29;10.05;;;4.88;;
41255;SDS011;26989;45.524;10.938;2022-12-07T07:20:56;9.18;;;4.95;;
41255;SDS011;26989;45.524;10.938;2022-12-07T07:23:23;12.18;;;5.93;;
41255;SDS011;26989;45.524;10.938;2022-12-07T07:25:51;12.35;;;6.55;;
41255;SDS011;26989;45.524;10.938;2022-12-07T07:28:32;12.10;;;5.88;;
41255;SDS011;26989;45.524;10.938;2022-12-07T07:30:59;7.00;;;4.28;;
41255;SDS011;26989;45.524;10.938;2022-12-07T07:33:26;12.68;;;4.72;;
41255;SDS011;26989;45.524;10.938;2022-12-07T07:35:54;18.10;;;8.45;;
41255;SDS011;26989;45.524;10.938;2022-12-07T07:38:21;11.30;;;6.32;;
41255;SDS011;26989;45.524;10.938;2022-12-07T07:40:49;10.68;;;6.05;;
41255;SDS011;26989;45.524;10.938;2022-12-07T07:43:18;8.48;;;5.65;;
41255;SDS011;26989;45.524;10.938;2022-12-07T07:45:45;10.13;;;5.60;;
41255;SDS011;26989;45.524;10.938;2022-12-07T07:48:12;8.40;;;5.13;;
41255;SDS011;26989;45.524;10.938;2022-12-07T07:50:39;14.52;;;6.00;;
41255;SDS011;26989;45.524;10.938;2022-12-07T07:53:06;8.88;;;4.45;;
41255;SDS011;26989;45.524;10.938;2022-12-07T07:55:34;8.43;;;5.75;;
41255;SDS011;26989;45.524;10.938;2022-12-07T07:58:01;8.20;;;5.80;;
41255;SDS011;26989;45.524;10.938;2022-12-07T08:00:31;7.38;;;4.53;;
41255;SDS011;26989;45.524;10.938;2022-12-07T08:02:59;8.82;;;4.85;;
41255;SDS011;26989;45.524;10.938;2022-12-07T08:05:26;8.50;;;4.90;;
41255;SDS011;26989;45.524;10.938;2022-12-07T08:07:53;9.60;;;6.10;;
41255;SDS011;26989;45.524;10.938;2022-12-07T08:10:20;16.02;;;6.40;;
41255;SDS011;26989;45.524;10.938;2022-12-07T08:12:48;11.27;;;5.20;;
41255;SDS011;26989;45.524;10.938;2022-12-07T08:15:35;12.30;;;5.03;;
41255;SDS011;26989;45.524;10.938;2022-12-07T08:18:04;8.75;;;4.45;;
41255;SDS011;26989;45.524;10.938;2022-12-07T08:20:31;9.45;;;5.18;;
41255;SDS011;26989;45.524;10.938;2022-12-07T08:22:59;10.70;;;5.07;;
41255;SDS011;26989;45.524;10.938;2022-12-07T08:25:27;11.38;;;5.47;;
41255;SDS011;26989;45.524;10.938;2022-12-07T08:27:55;8.02;;;4.55;;
41255;SDS011;26989;45.524;10.938;2022-12-07T08:30:22;9.63;;;5.03;;
41255;SDS011;26989;45.524;10.938;2022-12-07T08:32:49;11.98;;;5.28;;
41255;SDS011;26989;45.524;10.938;2022-12-07T08:35:16;10.63;;;4.57;;
41255;SDS011;26989;45.524;10.938;2022-12-07T08:37:43;9.48;;;5.72;;
41255;SDS011;26989;45.524;10.938;2022-12-07T08:40:11;9.18;;;4.93;;
41255;SDS011;26989;45.524;10.938;2022-12-07T08:42:48;10.18;;;5.82;;
41255;SDS011;26989;45.524;10.938;2022-12-07T08:45:16;15.15;;;8.70;;
41255;SDS011;26989;45.524;10.938;2022-12-07T08:50:22;15.55;;;7.88;;
41255;SDS011;26989;45.524;10.938;2022-12-07T08:52:51;17.65;;;9.63;;
41255;SDS011;26989;45.524;10.938;2022-12-07T08:55:20;21.70;;;9.98;;
41255;SDS011;26989;45.524;10.938;2022-12-07T08:57:47;20.75;;;10.20;;
41255;SDS011;26989;45.524;10.938;2022-12-07T09:00:21;17.90;;;9.48;;
41255;SDS011;26989;45.524;10.938;2022-12-07T09:02:48;16.42;;;9.15;;
41255;SDS011;26989;45.524;10.938;2022-12-07T09:05:15;29.30;;;19.45;;
41255;SDS011;26989;45.524;10.938;2022-12-07T09:07:43;29.10;;;17.80;;
41255;SDS011;26989;45.524;10.938;2022-12-07T09:10:14;21.70;;;10.75;;
41255;SDS011;26989;45.524;10.938;2022-12-07T09:12:41;16.88;;;9.10;;
41255;SDS011;26989;45.524;10.938;2022-12-07T09:15:08;18.23;;;9.40;;
41255;SDS011;26989;45.524;10.938;2022-12-07T09:17:35;23.67;;;10.43;;
41255;SDS011;26989;45.524;10.938;2022-12-07T09:20:03;17.63;;;9.15;;
41255;SDS011;26989;45.524;10.938;2022-12-07T09:22:32;19.75;;;9.50;;
41255;SDS011;26989;45.524;10.938;2022-12-07T09:24:59;18.25;;;8.02;;
41255;SDS011;26989;45.524;10.938;2022-12-07T09:27:28;14.50;;;7.88;;
41255;SDS011;26989;45.524;10.938;2022-12-07T09:29:56;16.20;;;8.32;;
41255;SDS011;26989;45.524;10.938;2022-12-07T09:32:22;22.88;;;11.45;;
41255;SDS011;26989;45.524;10.938;2022-12-07T09:34:52;17.50;;;10.40;;
41255;SDS011;26989;45.524;10.938;2022-12-07T09:37:19;14.85;;;8.43;;
41255;SDS011;26989;45.524;10.938;2022-12-07T09:39:45;16.50;;;9.15;;
41255;SDS011;26989;45.524;10.938;2022-12-07T09:42:35;18.92;;;9.35;;
41255;SDS011;26989;45.524;10.938;2022-12-07T09:45:06;18.98;;;8.55;;
41255;SDS011;26989;45.524;10.938;2022-12-07T09:47:38;17.08;;;8.82;;
41255;SDS011;26989;45.524;10.938;2022-12-07T09:50:15;25.10;;;9.02;;
41255;SDS011;26989;45.524;10.938;2022-12-07T09:52:45;15.23;;;8.82;;
41255;SDS011;26989;45.524;10.938;2022-12-07T09:55:15;13.30;;;7.63;;
41255;SDS011;26989;45.524;10.938;2022-12-07T09:57:45;12.75;;;7.72;;
41255;SDS011;26989;45.524;10.938;2022-12-07T10:00:14;15.95;;;7.85;;
41255;SDS011;26989;45.524;10.938;2022-12-07T10:02:55;15.88;;;8.35;;
41255;SDS011;26989;45.524;10.938;2022-12-07T10:05:29;12.77;;;7.97;;
41255;SDS011;26989;45.524;10.938;2022-12-07T10:10:29;11.10;;;7.32;;
41255;SDS011;26989;45.524;10.938;2022-12-07T10:13:11;18.52;;;8.10;;
41255;SDS011;26989;45.524;10.938;2022-12-07T10:15:53;13.85;;;8.45;;
41255;SDS011;26989;45.524;10.938;2022-12-07T10:23:36;13.32;;;9.65;;
41255;SDS011;26989;45.524;10.938;2022-12-07T10:26:26;15.95;;;10.30;;
41255;SDS011;26989;45.524;10.938;2022-12-07T10:28:55;17.38;;;10.45;;
41255;SDS011;26989;45.524;10.938;2022-12-07T10:31:25;21.98;;;11.80;;
41255;SDS011;26989;45.524;10.938;2022-12-07T10:33:58;20.70;;;11.90;;
41255;SDS011;26989;45.524;10.938;2022-12-07T10:36:35;20.42;;;11.57;;
41255;SDS011;26989;45.524;10.938;2022-12-07T10:39:13;22.02;;;12.65;;
41255;SDS011;26989;45.524;10.938;2022-12-07T10:42:01;19.80;;;11.38;;
41255;SDS011;26989;45.524;10.938;2022-12-07T10:44:30;24.45;;;11.60;;
41255;SDS011;26989;45.524;10.938;2022-12-07T11:19:05;23.98;;;11.77;;
41255;SDS011;26989;45.524;10.938;2022-12-07T11:21:57;25.17;;;11.45;;
41255;SDS011;26989;45.524;10.938;2022-12-07T11:24:30;16.38;;;10.75;;
41255;SDS011;26989;45.524;10.938;2022-12-07T11:27:26;19.48;;;10.88;;
41255;SDS011;26989;45.524;10.938;2022-12-07T11:30:08;19.40;;;10.32;;
41255;SDS011;26989;45.524;10.938;2022-12-07T11:32:57;20.42;;;12.45;;
41255;SDS011;26989;45.524;10.938;2022-12-07T11:38:22;25.67;;;14.10;;
41255;SDS011;26989;45.524;10.938;2022-12-07T11:40:56;17.63;;;12.55;;
41255;SDS011;26989;45.524;10.938;2022-12-07T11:43:50;25.27;;;14.25;;
41255;SDS011;26989;45.524;10.938;2022-12-07T11:47:04;24.98;;;13.38;;
41255;SDS011;26989;45.524;10.938;2022-12-07T11:52:11;21.38;;;12.68;;
41255;SDS011;26989;45.524;10.938;2022-12-07T11:54:50;18.27;;;11.60;;
41255;SDS011;26989;45.524;10.938;2022-12-07T11:57:54;18.85;;;11.00;;
41255;SDS011;26989;45.524;10.938;2022-12-07T12:00:17;18.33;;;11.63;;
41255;SDS011;26989;45.524;10.938;2022-12-07T12:05:36;24.40;;;14.70;;
41255;SDS011;26989;45.524;10.938;2022-12-07T12:23:00;26.95;;;14.90;;
41255;SDS011;26989;45.524;10.938;2022-12-07T12:25:44;23.63;;;14.98;;
41255;SDS011;26989;45.524;10.938;2022-12-07T12:28:22;22.85;;;14.82;;
41255;SDS011;26989;45.524;10.938;2022-12-07T12:34:40;26.63;;;15.52;;
41255;SDS011;26989;45.524;10.938;2022-12-07T12:37:13;27.77;;;15.88;;
41255;SDS011;26989;45.524;10.938;2022-12-07T12:43:01;26.40;;;15.68;;
41255;SDS011;26989;45.524;10.938;2022-12-07T12:48:46;24.95;;;16.10;;
41255;SDS011;26989;45.524;10.938;2022-12-07T12:54:05;29.92;;;16.50;;
41255;SDS011;26989;45.524;10.938;2022-12-07T12:59:42;27.45;;;15.07;;
41255;SDS011;26989;45.524;10.938;2022-12-07T13:12:59;24.25;;;14.95;;
41255;SDS011;26989;45.524;10.938;2022-12-07T13:15:41;24.50;;;14.50;;
41255;SDS011;26989;45.524;10.938;2022-12-07T13:26:19;25.80;;;13.98;;
41255;SDS011;26989;45.524;10.938;2022-12-07T13:28:52;26.70;;;14.43;;
41255;SDS011;26989;45.524;10.938;2022-12-07T13:31:42;23.35;;;14.07;;
41255;SDS011;26989;45.524;10.938;2022-12-07T13:34:54;20.70;;;13.13;;
41255;SDS011;26989;45.524;10.938;2022-12-07T13:37:15;23.95;;;13.00;;
41255;SDS011;26989;45.524;10.938;2022-12-07T13:39:50;22.15;;;13.55;;
41255;SDS011;26989;45.524;10.938;2022-12-07T13:42:27;19.40;;;13.15;;
41255;SDS011;26989;45.524;10.938;2022-12-07T13:45:00;22.35;;;14.40;;
41255;SDS011;26989;45.524;10.938;2022-12-07T13:47:55;32.50;;;22.75;;
41255;SDS011;26989;45.524;10.938;2022-12-07T13:50:39;32.45;;;22.92;;
41255;SDS011;26989;45.524;10.938;2022-12-07T13:53:07;30.02;;;17.25;;
41255;SDS011;26989;45.524;10.938;2022-12-07T13:55:46;25.27;;;16.27;;
41255;SDS011;26989;45.524;10.938;2022-12-07T13:58:19;25.15;;;15.57;;
41255;SDS011;26989;45.524;10.938;2022-12-07T14:00:48;24.67;;;15.95;;
41255;SDS011;26989;45.524;10.938;2022-12-07T14:11:47;23.38;;;15.15;;
41255;SDS011;26989;45.524;10.938;2022-12-07T14:14:23;41.90;;;26.55;;
41255;SDS011;26989;45.524;10.938;2022-12-07T14:16:59;25.58;;;16.58;;
41255;SDS011;26989;45.524;10.938;2022-12-07T14:22:37;26.10;;;16.05;;
41255;SDS011;26989;45.524;10.938;2022-12-07T14:27:53;26.45;;;15.88;;
41255;SDS011;26989;45.524;10.938;2022-12-07T14:30:33;26.27;;;13.50;;
41255;SDS011;26989;45.524;10.938;2022-12-07T14:33:03;27.67;;;15.82;;
41255;SDS011;26989;45.524;10.938;2022-12-07T14:35:34;26.55;;;15.70;;
41255;SDS011;26989;45.524;10.938;2022-12-07T14:38:12;31.05;;;20.55;;
41255;SDS011;26989;45.524;10.938;2022-12-07T14:41:25;26.63;;;18.20;;
41255;SDS011;26989;45.524;10.938;2022-12-07T14:44:11;29.05;;;22.75;;
41255;SDS011;26989;45.524;10.938;2022-12-07T14:46:58;32.30;;;22.70;;
41255;SDS011;26989;45.524;10.938;2022-12-07T14:49:45;32.00;;;19.15;;
41255;SDS011;26989;45.524;10.938;2022-12-07T14:52:13;35.13;;;22.38;;
41255;SDS011;26989;45.524;10.938;2022-12-07T14:55:04;39.55;;;23.17;;
41255;SDS011;26989;45.524;10.938;2022-12-07T14:57:34;29.08;;;19.25;;
41255;SDS011;26989;45.524;10.938;2022-12-07T15:00:03;28.83;;;17.70;;
41255;SDS011;26989;45.524;10.938;2022-12-07T15:02:31;32.83;;;17.15;;
41255;SDS011;26989;45.524;10.938;2022-12-07T15:05:13;27.13;;;16.77;;
41255;SDS011;26989;45.524;10.938;2022-12-07T15:07:46;29.17;;;17.15;;
41255;SDS011;26989;45.524;10.938;2022-12-07T15:10:16;27.85;;;18.52;;
41255;SDS011;26989;45.524;10.938;2022-12-07T15:13:02;31.27;;;19.40;;
41255;SDS011;26989;45.524;10.938;2022-12-07T15:16:04;35.08;;;21.23;;
41255;SDS011;26989;45.524;10.938;2022-12-07T15:18:50;34.17;;;20.70;;
41255;SDS011;26989;45.524;10.938;2022-12-07T15:21:47;29.88;;;19.13;;
41255;SDS011;26989;45.524;10.938;2022-12-07T15:24:15;29.88;;;18.73;;
41255;SDS011;26989;45.524;10.938;2022-12-07T15:27:18;33.10;;;19.90;;
41255;SDS011;26989;45.524;10.938;2022-12-07T15:29:46;31.48;;;20.75;;
41255;SDS011;26989;45.524;10.938;2022-12-07T15:32:15;36.38;;;21.45;;
41255;SDS011;26989;45.524;10.938;2022-12-07T15:34:46;35.50;;;22.30;;
41255;SDS011;26989;45.524;10.938;2022-12-07T15:37:13;31.98;;;22.58;;
41255;SDS011;26989;45.524;10.938;2022-12-07T15:39:40;31.15;;;21.38;;
41255;SDS011;26989;45.524;10.938;2022-12-07T15:42:10;37.50;;;22.85;;
41255;SDS011;26989;45.524;10.938;2022-12-07T15:47:24;42.22;;;26.95;;
41255;SDS011;26989;45.524;10.938;2022-12-07T15:49:53;46.47;;;28.33;;
41255;SDS011;26989;45.524;10.938;2022-12-07T15:52:24;50.75;;;29.67;;
41255;SDS011;26989;45.524;10.938;2022-12-07T15:55:02;45.05;;;30.42;;
41255;SDS011;26989;45.524;10.938;2022-12-07T15:57:35;46.50;;;29.13;;
41255;SDS011;26989;45.524;10.938;2022-12-07T16:00:22;46.92;;;29.88;;
41255;SDS011;26989;45.524;10.938;2022-12-07T16:03:28;46.67;;;31.20;;
41255;SDS011;26989;45.524;10.938;2022-12-07T16:06:07;52.80;;;34.35;;
41255;SDS011;26989;45.524;10.938;2022-12-07T16:08:42;60.88;;;34.95;;
41255;SDS011;26989;45.524;10.938;2022-12-07T16:11:10;44.38;;;25.05;;
41255;SDS011;26989;45.524;10.938;2022-12-07T16:13:42;58.13;;;34.45;;
41255;SDS011;26989;45.524;10.938;2022-12-07T16:16:18;68.43;;;37.63;;
41255;SDS011;26989;45.524;10.938;2022-12-07T16:18:53;201.30;;;80.65;;
41255;SDS011;26989;45.524;10.938;2022-12-07T16:21:20;214.13;;;91.03;;
41255;SDS011;26989;45.524;10.938;2022-12-07T16:23:51;184.45;;;87.07;;
41255;SDS011;26989;45.524;10.938;2022-12-07T16:26:20;79.57;;;42.83;;
41255;SDS011;26989;45.524;10.938;2022-12-07T16:28:49;63.33;;;37.72;;
41255;SDS011;26989;45.524;10.938;2022-12-07T16:31:32;61.22;;;34.88;;
41255;SDS011;26989;45.524;10.938;2022-12-07T16:34:00;65.85;;;38.72;;
41255;SDS011;26989;45.524;10.938;2022-12-07T16:36:27;69.55;;;42.42;;
41255;SDS011;26989;45.524;10.938;2022-12-07T16:39:14;73.13;;;42.45;;
41255;SDS011;26989;45.524;10.938;2022-12-07T16:41:41;81.88;;;43.20;;
41255;SDS011;26989;45.524;10.938;2022-12-07T16:44:10;78.30;;;45.15;;
41255;SDS011;26989;45.524;10.938;2022-12-07T16:46:38;67.18;;;38.58;;
41255;SDS011;26989;45.524;10.938;2022-12-07T16:49:06;59.20;;;35.97;;
41255;SDS011;26989;45.524;10.938;2022-12-07T16:51:35;55.83;;;34.70;;
41255;SDS011;26989;45.524;10.938;2022-12-07T16:54:03;59.13;;;36.90;;
41255;SDS011;26989;45.524;10.938;2022-12-07T16:56:30;63.38;;;35.40;;
41255;SDS011;26989;45.524;10.938;2022-12-07T16:58:58;64.45;;;38.42;;
41255;SDS011;26989;45.524;10.938;2022-12-07T17:01:26;71.57;;;41.67;;
41255;SDS011;26989;45.524;10.938;2022-12-07T17:03:56;69.32;;;39.97;;
41255;SDS011;26989;45.524;10.938;2022-12-07T17:06:36;52.15;;;32.17;;
41255;SDS011;26989;45.524;10.938;2022-12-07T17:09:07;54.97;;;29.73;;
41255;SDS011;26989;45.524;10.938;2022-12-07T17:17:14;40.58;;;24.88;;
41255;SDS011;26989;45.524;10.938;2022-12-07T17:19:40;40.65;;;23.25;;
41255;SDS011;26989;45.524;10.938;2022-12-07T17:22:09;42.63;;;23.35;;
41255;SDS011;26989;45.524;10.938;2022-12-07T17:24:38;40.17;;;23.33;;